createdAt,value
2018-05-02T00:00:39.981Z,12.26
2018-05-02T00:03:07.375Z,12.27
2018-05-02T00:05:34.759Z,12.31
2018-05-02T00:08:02.153Z,12.05
2018-05-02T00:10:29.511Z,12.14
2018-05-02T00:12:56.939Z,11.93
2018-05-02T00:15:24.319Z,12.03
2018-05-02T00:17:51.780Z,11.92
2018-05-02T00:20:19.182Z,11.94
2018-05-02T00:22:46.762Z,11.85
2018-05-02T00:25:14.144Z,12.04
2018-05-02T00:27:41.527Z,11.67
2018-05-02T00:30:08.937Z,11.81
2018-05-02T00:32:36.324Z,12.05
2018-05-02T00:35:03.736Z,11.92
2018-05-02T00:37:31.146Z,11.96
2018-05-02T00:39:58.740Z,12.19
2018-05-02T00:42:26.169Z,11.77
2018-05-02T00:44:53.560Z,12.00
2018-05-02T00:47:20.956Z,12.14
2018-05-02T00:49:48.415Z,11.86
2018-05-02T00:52:15.896Z,12.00
2018-05-02T00:54:43.271Z,12.18
2018-05-02T00:57:10.732Z,11.87
2018-05-02T00:59:38.175Z,12.08
2018-05-02T01:02:05.555Z,12.12
2018-05-02T01:04:32.948Z,12.10
2018-05-02T01:07:00.365Z,12.03
2018-05-02T01:09:27.823Z,12.06
2018-05-02T01:11:55.206Z,12.02
2018-05-02T01:14:22.640Z,11.95
2018-05-02T01:16:50.030Z,11.88
2018-05-02T01:19:17.425Z,11.66
2018-05-02T01:21:44.798Z,11.76
2018-05-02T01:24:12.407Z,11.81
2018-05-02T01:26:39.801Z,11.74
2018-05-02T01:29:07.190Z,11.52
2018-05-02T01:31:34.562Z,11.46
2018-05-02T01:34:01.978Z,11.57
2018-05-02T01:36:29.411Z,11.30
2018-05-02T01:38:56.898Z,11.13
2018-05-02T01:41:24.275Z,11.11
2018-05-02T01:43:51.692Z,10.94
2018-05-02T01:46:19.073Z,11.00
2018-05-02T01:48:58.172Z,11.27
2018-05-02T01:51:25.615Z,11.31
2018-05-02T01:53:53.011Z,11.41
2018-05-02T01:56:20.382Z,11.54
2018-05-02T01:58:47.939Z,11.26
2018-05-02T02:01:15.974Z,11.41
2018-05-02T02:03:43.356Z,10.85
2018-05-02T02:06:10.749Z,11.03
2018-05-02T02:08:38.346Z,11.09
2018-05-02T02:11:05.756Z,11.28
2018-05-02T02:13:33.140Z,10.96
2018-05-02T02:16:00.755Z,11.08
2018-05-02T02:18:28.144Z,11.22
2018-05-02T02:20:55.522Z,11.12
2018-05-02T02:23:22.919Z,11.05
2018-05-02T02:25:50.339Z,11.05
2018-05-02T02:28:17.752Z,10.91
2018-05-02T02:30:45.169Z,10.83
2018-05-02T02:33:12.550Z,10.77
2018-05-02T02:35:39.946Z,10.98
2018-05-02T02:38:07.343Z,10.93
2018-05-02T02:40:34.729Z,11.21
2018-05-02T02:43:02.127Z,11.14
2018-05-02T02:45:29.523Z,10.83
2018-05-02T02:47:56.906Z,10.96
2018-05-02T02:50:24.292Z,10.94
2018-05-02T02:52:51.680Z,10.91
2018-05-02T02:55:19.165Z,10.83
2018-05-02T02:57:46.528Z,10.93
2018-05-02T03:00:13.900Z,11.05
2018-05-02T03:02:41.281Z,10.96
2018-05-02T03:05:08.709Z,11.02
2018-05-02T03:07:36.087Z,11.22
2018-05-02T03:10:03.480Z,11.07
2018-05-02T03:12:30.900Z,11.06
2018-05-02T03:14:58.479Z,11.10
2018-05-02T03:17:25.871Z,10.97
2018-05-02T03:19:53.243Z,11.13
2018-05-02T03:22:20.706Z,11.07
2018-05-02T03:24:48.104Z,11.04
2018-05-02T03:27:15.479Z,11.16
2018-05-02T03:29:42.855Z,10.93
2018-05-02T03:32:10.419Z,11.19
2018-05-02T03:34:37.863Z,11.12
2018-05-02T03:37:05.247Z,11.29
2018-05-02T03:39:32.636Z,11.36
2018-05-02T03:42:00.023Z,11.32
2018-05-02T03:44:27.401Z,10.70
2018-05-02T03:46:54.820Z,10.82
2018-05-02T03:49:22.264Z,10.78
2018-05-02T03:51:49.654Z,10.75
2018-05-02T03:54:17.130Z,10.99
2018-05-02T03:56:44.515Z,11.19
2018-05-02T03:59:11.991Z,11.21
2018-05-02T04:01:51.322Z,11.16
2018-05-02T04:04:30.367Z,10.99
2018-05-02T04:07:15.197Z,11.23
2018-05-02T04:09:42.590Z,11.19
2018-05-02T04:12:17.378Z,11.09
2018-05-02T04:14:44.780Z,11.21
2018-05-02T04:17:12.156Z,11.01
2018-05-02T04:19:39.645Z,10.85
2018-05-02T04:22:07.027Z,10.64
2018-05-02T04:24:34.414Z,10.72
2018-05-02T04:27:01.818Z,10.66
2018-05-02T04:29:29.268Z,10.71
2018-05-02T04:31:56.793Z,10.79
2018-05-02T04:34:24.176Z,10.75
2018-05-02T04:36:51.567Z,10.66
2018-05-02T04:39:18.938Z,10.71
2018-05-02T04:41:46.323Z,10.80
2018-05-02T04:44:13.760Z,10.83
2018-05-02T04:46:41.168Z,11.00
2018-05-02T04:49:08.559Z,10.91
2018-05-02T04:51:35.947Z,10.88
2018-05-02T04:54:03.338Z,11.09
2018-05-02T04:56:30.723Z,10.99
2018-05-02T04:58:58.152Z,11.14
2018-05-02T05:01:25.533Z,11.16
2018-05-02T05:03:52.915Z,11.16
2018-05-02T05:06:20.331Z,11.13
2018-05-02T05:08:47.738Z,11.39
2018-05-02T05:11:15.177Z,11.20
2018-05-02T05:13:42.569Z,11.32
2018-05-02T05:16:09.979Z,11.35
2018-05-02T05:18:37.381Z,11.25
2018-05-02T05:21:04.941Z,11.37
2018-05-02T05:23:32.327Z,11.47
2018-05-02T05:25:59.729Z,11.30
2018-05-02T05:28:27.110Z,11.57
2018-05-02T05:30:54.491Z,11.80
2018-05-02T05:33:21.876Z,11.96
2018-05-02T05:35:49.336Z,11.82
2018-05-02T05:38:16.730Z,11.94
2018-05-02T05:40:44.123Z,11.98
2018-05-02T05:43:11.527Z,12.04
2018-05-02T05:45:38.934Z,12.01
2018-05-02T05:48:06.779Z,12.01
2018-05-02T05:50:34.326Z,12.00
2018-05-02T05:53:01.701Z,11.98
2018-05-02T05:55:29.096Z,11.96
2018-05-02T05:57:56.639Z,11.87
2018-05-02T06:00:24.135Z,11.87
2018-05-02T06:02:51.535Z,11.92
2018-05-02T06:05:18.955Z,11.77
2018-05-02T06:07:46.451Z,11.80
2018-05-02T06:10:14.127Z,11.74
2018-05-02T06:12:41.518Z,11.75
2018-05-02T06:15:08.904Z,11.88
2018-05-02T06:17:36.283Z,12.00
2018-05-02T06:20:03.677Z,12.18
2018-05-02T06:22:31.071Z,12.19
2018-05-02T06:24:58.501Z,12.25
2018-05-02T06:27:25.872Z,12.41
2018-05-02T06:29:53.418Z,12.20
2018-05-02T06:32:20.803Z,12.19
2018-05-02T06:34:48.238Z,12.26
2018-05-02T06:37:15.621Z,12.36
2018-05-02T06:39:43.092Z,12.30
2018-05-02T06:42:10.493Z,12.16
2018-05-02T06:44:37.930Z,12.19
2018-05-02T06:47:05.317Z,12.27
2018-05-02T06:49:32.700Z,12.35
2018-05-02T06:52:00.550Z,12.65
2018-05-02T06:54:27.915Z,12.58
2018-05-02T06:56:55.337Z,12.55
2018-05-02T06:59:22.722Z,12.80
2018-05-02T07:01:50.107Z,12.64
2018-05-02T07:04:17.519Z,12.78
2018-05-02T07:06:44.977Z,12.89
2018-05-02T07:09:12.367Z,12.90
2018-05-02T07:11:39.761Z,13.06
2018-05-02T07:14:07.183Z,12.95
2018-05-02T07:16:34.572Z,13.05
2018-05-02T07:19:01.955Z,13.23
2018-05-02T07:21:29.354Z,13.36
2018-05-02T07:23:56.751Z,13.40
2018-05-02T07:26:24.116Z,13.43
2018-05-02T07:28:51.512Z,13.32
2018-05-02T07:31:18.905Z,13.39
2018-05-02T07:33:46.291Z,13.59
2018-05-02T07:36:13.670Z,13.70
2018-05-02T07:38:41.064Z,13.82
2018-05-02T07:41:08.479Z,13.96
2018-05-02T07:43:35.859Z,13.99
2018-05-02T07:46:03.279Z,14.03
2018-05-02T07:48:30.949Z,14.12
2018-05-02T07:50:58.271Z,14.08
2018-05-02T07:53:25.949Z,14.10
2018-05-02T07:55:53.377Z,14.18
2018-05-02T07:58:20.760Z,14.41
2018-05-02T08:00:48.274Z,14.27
2018-05-02T08:03:15.783Z,14.36
2018-05-02T08:05:43.156Z,14.45
2018-05-02T08:08:10.555Z,14.55
2018-05-02T08:10:37.935Z,14.60
2018-05-02T08:13:05.404Z,14.61
2018-05-02T08:15:32.766Z,14.64
2018-05-02T08:18:00.171Z,14.84
2018-05-02T08:20:27.592Z,14.96
2018-05-02T08:22:55.024Z,14.91
2018-05-02T08:25:22.399Z,15.02
2018-05-02T08:27:49.782Z,15.02
2018-05-02T08:30:17.181Z,14.99
2018-05-02T08:32:44.560Z,15.14
2018-05-02T08:35:11.947Z,15.18
2018-05-02T08:37:39.390Z,15.26
2018-05-02T08:40:06.786Z,15.33
2018-05-02T08:42:34.491Z,15.52
2018-05-02T08:45:01.935Z,15.52
2018-05-02T08:47:29.371Z,15.34
2018-05-02T08:49:56.831Z,15.41
2018-05-02T08:52:24.122Z,15.56
2018-05-02T08:54:51.535Z,15.75
2018-05-02T08:57:30.639Z,15.86
2018-05-02T09:00:05.643Z,15.72
2018-05-02T09:02:33.308Z,15.94
2018-05-02T09:05:00.711Z,15.93
2018-05-02T09:07:28.101Z,15.93
2018-05-02T09:09:55.487Z,16.04
2018-05-02T09:12:23.667Z,15.93
2018-05-02T09:14:51.205Z,15.89
2018-05-02T09:17:18.659Z,16.07
2018-05-02T09:19:46.035Z,16.20
2018-05-02T09:22:13.424Z,16.45
2018-05-02T09:24:40.818Z,16.55
2018-05-02T09:27:08.238Z,16.51
2018-05-02T09:29:35.612Z,16.72
2018-05-02T09:32:03.003Z,16.76
2018-05-02T09:34:30.390Z,16.61
2018-05-02T09:36:57.794Z,16.64
2018-05-02T09:39:25.179Z,16.76
2018-05-02T09:41:53.422Z,16.82
2018-05-02T09:44:20.807Z,16.98
2018-05-02T09:46:48.203Z,17.05
2018-05-02T09:49:15.580Z,17.06
2018-05-02T09:51:42.970Z,17.14
2018-05-02T09:54:10.351Z,17.15
2018-05-02T09:56:37.735Z,17.16
2018-05-02T09:59:05.107Z,17.31
2018-05-02T10:01:32.506Z,17.25
2018-05-02T10:03:59.891Z,17.31
2018-05-02T10:06:27.275Z,17.25
2018-05-02T10:08:54.862Z,17.34
2018-05-02T10:11:22.231Z,17.24
2018-05-02T10:13:49.648Z,17.37
2018-05-02T10:16:17.031Z,17.34
2018-05-02T10:18:44.413Z,17.27
2018-05-02T10:21:11.797Z,17.42
2018-05-02T10:23:39.199Z,17.58
2018-05-02T10:26:06.560Z,17.69
2018-05-02T10:28:33.955Z,17.65
2018-05-02T10:31:01.341Z,17.74
2018-05-02T10:33:28.829Z,17.77
2018-05-02T10:35:56.190Z,17.93
2018-05-02T10:38:23.694Z,18.16
2018-05-02T10:40:51.068Z,18.21
2018-05-02T10:43:18.451Z,18.23
2018-05-02T10:45:45.816Z,18.20
2018-05-02T10:48:13.229Z,18.38
2018-05-02T10:50:40.627Z,18.27
2018-05-02T10:53:08.015Z,18.27
2018-05-02T10:55:35.397Z,18.46
2018-05-02T10:58:02.897Z,18.23
2018-05-02T11:00:30.278Z,18.28
2018-05-02T11:02:57.700Z,18.45
2018-05-02T11:05:25.166Z,18.70
2018-05-02T11:07:52.555Z,18.91
2018-05-02T11:10:19.943Z,18.86
2018-05-02T11:12:47.465Z,18.97
2018-05-02T11:15:14.984Z,19.08
2018-05-02T11:17:42.410Z,18.73
2018-05-02T11:20:09.804Z,18.72
2018-05-02T11:22:37.172Z,19.06
2018-05-02T11:25:04.572Z,19.29
2018-05-02T11:27:31.966Z,19.38
2018-05-02T11:29:59.352Z,19.33
2018-05-02T11:32:26.745Z,19.23
2018-05-02T11:34:54.145Z,19.16
2018-05-02T11:37:21.548Z,19.22
2018-05-02T11:39:48.999Z,19.28
2018-05-02T11:42:16.466Z,19.36
2018-05-02T11:44:43.850Z,19.66
2018-05-02T11:47:11.321Z,19.87
2018-05-02T11:49:38.717Z,20.12
2018-05-02T11:52:06.124Z,20.22
2018-05-02T11:54:33.551Z,20.05
2018-05-02T11:57:00.983Z,20.25
2018-05-02T11:59:28.412Z,20.31
2018-05-02T12:01:55.981Z,20.00
2018-05-02T12:04:23.373Z,19.97
2018-05-02T12:06:50.756Z,20.57
2018-05-02T12:09:18.166Z,20.75
2018-05-02T12:11:45.553Z,21.14
2018-05-02T12:14:13.093Z,21.29
2018-05-02T12:16:40.479Z,21.31
2018-05-02T12:19:07.890Z,20.89
2018-05-02T12:21:35.319Z,21.31
2018-05-02T12:24:02.697Z,20.94
2018-05-02T12:26:30.088Z,20.99
2018-05-02T12:28:57.474Z,20.76
2018-05-02T12:31:24.860Z,20.42
2018-05-02T12:33:52.238Z,20.44
2018-05-02T12:36:19.619Z,20.63
2018-05-02T12:38:47.031Z,20.63
2018-05-02T12:41:14.426Z,20.84
2018-05-02T12:43:41.825Z,20.80
2018-05-02T12:46:09.210Z,20.52
2018-05-02T12:48:36.601Z,19.78
2018-05-02T12:51:03.995Z,19.97
2018-05-02T12:53:31.371Z,20.12
2018-05-02T12:55:59.701Z,20.35
2018-05-02T12:58:27.085Z,20.31
2018-05-02T13:00:54.460Z,20.25
2018-05-02T13:03:21.854Z,20.44
2018-05-02T13:05:49.239Z,20.41
2018-05-02T13:08:16.675Z,20.29
2018-05-02T13:10:44.050Z,20.22
2018-05-02T13:13:11.439Z,20.69
2018-05-02T13:15:38.930Z,21.65
2018-05-02T13:18:06.269Z,22.26
2018-05-02T13:20:33.747Z,22.76
2018-05-02T13:23:01.125Z,22.85
2018-05-02T13:25:28.557Z,22.78
2018-05-02T13:27:56.091Z,23.16
2018-05-02T13:30:24.236Z,23.62
2018-05-02T13:32:51.645Z,23.82
2018-05-02T13:35:19.254Z,23.80
2018-05-02T13:37:46.738Z,23.26
2018-05-02T13:40:14.145Z,22.92
2018-05-02T13:42:41.549Z,23.30
2018-05-02T13:45:08.965Z,23.54
2018-05-02T13:47:36.490Z,23.39
2018-05-02T13:50:03.905Z,22.95
2018-05-02T13:52:31.299Z,22.97
2018-05-02T13:54:58.797Z,23.31
2018-05-02T13:57:26.194Z,23.28
2018-05-02T13:59:53.608Z,23.57
2018-05-02T14:02:21.016Z,23.10
2018-05-02T14:04:48.365Z,22.34
2018-05-02T14:07:15.775Z,22.49
2018-05-02T14:09:43.174Z,22.45
2018-05-02T14:12:10.630Z,22.58
2018-05-02T14:14:38.030Z,22.43
2018-05-02T14:17:05.445Z,22.38
2018-05-02T14:19:32.831Z,22.50
2018-05-02T14:22:00.232Z,22.38
2018-05-02T14:24:27.625Z,22.58
2018-05-02T14:26:55.007Z,22.79
2018-05-02T14:29:22.423Z,22.97
2018-05-02T14:31:49.807Z,22.99
2018-05-02T14:34:17.237Z,22.88
2018-05-02T14:36:44.624Z,23.02
2018-05-02T14:39:12.067Z,22.98
2018-05-02T14:41:40.482Z,22.82
2018-05-02T14:44:07.868Z,22.88
2018-05-02T14:46:35.319Z,23.65
2018-05-02T14:49:02.705Z,24.75
2018-05-02T14:51:30.142Z,25.36
2018-05-02T14:53:57.719Z,25.05
2018-05-02T14:56:25.146Z,25.09
2018-05-02T14:58:52.533Z,25.18
2018-05-02T15:01:19.938Z,26.29
2018-05-02T15:03:47.313Z,26.56
2018-05-02T15:06:14.811Z,26.74
2018-05-02T15:08:42.179Z,26.30
2018-05-02T15:11:09.579Z,26.50
2018-05-02T15:13:36.961Z,27.88
2018-05-02T15:16:04.327Z,27.41
2018-05-02T15:18:31.795Z,26.51
2018-05-02T15:20:59.174Z,25.59
2018-05-02T15:23:26.574Z,25.08
2018-05-02T15:25:53.954Z,24.87
2018-05-02T15:28:21.353Z,24.64
2018-05-02T15:30:48.735Z,24.63
2018-05-02T15:33:16.154Z,24.69
2018-05-02T15:35:44.543Z,25.10
2018-05-02T15:38:11.938Z,25.04
2018-05-02T15:40:40.265Z,24.90
2018-05-02T15:43:07.652Z,24.42
2018-05-02T15:45:35.099Z,24.05
2018-05-02T15:48:08.121Z,23.82
2018-05-02T15:50:47.029Z,23.51
2018-05-02T15:53:14.542Z,23.42
2018-05-02T15:55:41.924Z,23.22
2018-05-02T15:58:09.408Z,22.77
2018-05-02T16:00:36.808Z,22.54
2018-05-02T16:03:04.191Z,22.52
2018-05-02T16:05:31.864Z,22.62
2018-05-02T16:07:59.479Z,22.28
2018-05-02T16:10:26.942Z,22.31
2018-05-02T16:12:54.359Z,22.05
2018-05-02T16:15:21.870Z,22.03
2018-05-02T16:17:49.266Z,21.94
2018-05-02T16:20:16.651Z,21.87
2018-05-02T16:22:44.020Z,21.69
2018-05-02T16:25:11.411Z,21.57
2018-05-02T16:27:38.863Z,21.49
2018-05-02T16:30:06.236Z,21.30
2018-05-02T16:32:33.604Z,21.35
2018-05-02T16:35:01.000Z,21.22
2018-05-02T16:37:28.425Z,21.13
2018-05-02T16:39:55.804Z,21.08
2018-05-02T16:42:23.187Z,21.29
2018-05-02T16:44:50.571Z,21.12
2018-05-02T16:47:17.959Z,21.10
2018-05-02T16:49:45.349Z,21.06
2018-05-02T16:52:12.731Z,20.81
2018-05-02T16:54:40.115Z,20.93
2018-05-02T16:57:07.566Z,20.76
2018-05-02T16:59:35.009Z,20.76
2018-05-02T17:02:02.475Z,20.61
2018-05-02T17:04:29.972Z,20.60
2018-05-02T17:06:57.426Z,20.45
2018-05-02T17:09:24.859Z,20.10
2018-05-02T17:11:52.274Z,20.18
2018-05-02T17:14:19.767Z,20.17
2018-05-02T17:16:47.300Z,20.00
2018-05-02T17:19:14.707Z,19.84
2018-05-02T17:21:42.151Z,19.73
2018-05-02T17:24:09.553Z,19.46
2018-05-02T17:26:36.986Z,19.15
2018-05-02T17:31:37.999Z,19.51
2018-05-02T17:34:05.383Z,19.49
2018-05-02T17:36:32.771Z,19.30
2018-05-02T17:39:00.157Z,19.21
2018-05-02T17:41:27.530Z,19.24
2018-05-02T17:43:54.918Z,19.22
2018-05-02T17:46:22.354Z,19.20
2018-05-02T17:48:49.679Z,19.31
2018-05-02T17:53:51.648Z,19.22
2018-05-02T17:56:19.602Z,19.18
2018-05-02T17:58:46.975Z,19.09
2018-05-02T18:01:15.319Z,19.11
2018-05-02T18:03:42.905Z,19.14
2018-05-02T18:06:10.340Z,19.11
2018-05-02T18:08:37.742Z,18.96
2018-05-02T18:11:05.478Z,18.99
2018-05-02T18:13:32.882Z,18.96
2018-05-02T18:16:00.382Z,19.03
2018-05-02T18:18:27.787Z,19.10
2018-05-02T18:20:55.354Z,19.08
2018-05-02T18:23:23.630Z,18.97
2018-05-02T18:25:51.035Z,18.92
2018-05-02T18:28:18.439Z,18.69
2018-05-02T18:30:45.870Z,18.93
2018-05-02T18:33:13.254Z,19.06
2018-05-02T18:35:40.858Z,18.92
2018-05-02T18:38:08.458Z,19.01
2018-05-02T18:40:35.927Z,18.97
2018-05-02T18:43:03.314Z,18.81
2018-05-02T18:45:30.699Z,18.89
2018-05-02T18:47:58.079Z,18.87
2018-05-02T18:50:25.455Z,18.78
2018-05-02T18:52:52.933Z,18.89
2018-05-02T18:55:20.491Z,18.88
2018-05-02T18:57:47.867Z,18.68
2018-05-02T19:00:15.255Z,18.66
2018-05-02T19:02:42.646Z,18.64
2018-05-02T19:05:10.017Z,18.62
2018-05-02T19:07:37.407Z,18.45
2018-05-02T19:10:04.807Z,18.43
2018-05-02T19:12:32.243Z,18.52
2018-05-02T19:14:59.619Z,18.43
2018-05-02T19:17:27.029Z,18.50
2018-05-02T19:19:59.927Z,18.30
2018-05-02T19:22:27.333Z,18.41
2018-05-02T19:25:00.418Z,18.38
2018-05-02T19:27:27.862Z,18.36
2018-05-02T19:29:55.393Z,18.44
2018-05-02T19:32:28.395Z,18.37
2018-05-02T19:34:55.833Z,18.42
2018-05-02T19:37:23.243Z,18.38
2018-05-02T19:39:56.463Z,18.12
2018-05-02T19:42:29.375Z,18.12
2018-05-02T19:44:56.875Z,17.83
2018-05-02T19:47:24.305Z,17.81
2018-05-02T19:49:51.675Z,17.68
2018-05-02T19:52:24.637Z,17.68
2018-05-02T19:54:51.999Z,17.90
2018-05-02T19:57:19.436Z,17.90
2018-05-02T19:59:46.854Z,18.02
2018-05-02T20:02:19.808Z,17.95
2018-05-02T20:04:47.195Z,17.96
2018-05-02T20:07:20.212Z,17.82
2018-05-02T20:09:53.063Z,17.84
2018-05-02T20:12:25.807Z,17.71
2018-05-02T20:14:53.186Z,17.64
2018-05-02T20:17:20.566Z,17.51
2018-05-02T20:19:48.056Z,17.57
2018-05-02T20:22:15.853Z,17.61
2018-05-02T20:24:43.519Z,17.60
2018-05-02T20:27:11.222Z,17.63
2018-05-02T20:29:40.069Z,17.62
2018-05-02T20:32:08.489Z,17.61
2018-05-02T20:34:35.943Z,17.60
2018-05-02T20:37:03.361Z,17.48
2018-05-02T20:39:30.782Z,17.49
2018-05-02T20:41:58.249Z,17.49
2018-05-02T20:44:25.588Z,17.32
2018-05-02T20:46:52.968Z,17.49
2018-05-02T20:49:20.383Z,17.39
2018-05-02T20:51:47.743Z,17.39
2018-05-02T20:54:15.828Z,17.41
2018-05-02T20:56:43.360Z,17.23
2018-05-02T20:59:10.745Z,17.26
2018-05-02T21:01:38.171Z,17.35
2018-05-02T21:04:05.566Z,17.22
2018-05-02T21:06:32.931Z,17.13
2018-05-02T21:09:00.326Z,17.24
2018-05-02T21:11:27.712Z,17.33
2018-05-02T21:13:55.235Z,17.27
2018-05-02T21:16:22.681Z,17.18
2018-05-02T21:18:50.077Z,17.12
2018-05-02T21:21:17.445Z,17.10
2018-05-02T21:23:44.851Z,17.19
2018-05-02T21:26:12.227Z,17.13
2018-05-02T21:28:39.640Z,17.08
2018-05-02T21:31:07.070Z,17.02
2018-05-02T21:33:34.524Z,16.96
2018-05-02T21:36:01.883Z,17.00
2018-05-02T21:38:29.291Z,16.99
2018-05-02T21:40:56.691Z,17.06
2018-05-02T21:43:24.079Z,17.03
2018-05-02T21:45:51.502Z,16.98
2018-05-02T21:48:18.879Z,17.04
2018-05-02T21:50:46.295Z,17.00
2018-05-02T21:53:13.680Z,16.95
2018-05-02T21:55:41.050Z,16.89
2018-05-02T21:58:08.456Z,16.86
2018-05-02T22:00:35.833Z,16.80
2018-05-02T22:03:03.231Z,16.93
2018-05-02T22:05:30.617Z,16.89
2018-05-02T22:07:58.079Z,16.65
2018-05-02T22:10:25.460Z,16.34
2018-05-02T22:12:53.167Z,16.22
2018-05-02T22:15:20.555Z,16.22
2018-05-02T22:17:48.015Z,16.16
2018-05-02T22:20:15.391Z,16.35
2018-05-02T22:22:42.768Z,16.57
2018-05-02T22:25:10.461Z,16.32
2018-05-02T22:27:37.878Z,16.44
2018-05-02T22:30:05.258Z,16.28
2018-05-02T22:32:32.647Z,16.22
2018-05-02T22:35:00.044Z,16.41
2018-05-02T22:37:27.399Z,16.49
2018-05-02T22:39:54.814Z,16.47
2018-05-02T22:42:22.208Z,16.40
2018-05-02T22:44:49.608Z,16.51
2018-05-02T22:47:16.975Z,16.39
2018-05-02T22:49:44.392Z,16.50
2018-05-02T22:52:11.775Z,16.29
2018-05-02T22:54:39.154Z,16.37
2018-05-02T22:57:06.540Z,16.31
2018-05-02T22:59:33.919Z,16.31
2018-05-02T23:02:01.295Z,16.35
2018-05-02T23:04:28.714Z,16.30
2018-05-02T23:06:56.087Z,16.32
2018-05-02T23:09:23.471Z,16.31
2018-05-02T23:11:50.839Z,16.17
2018-05-02T23:14:18.339Z,16.13
2018-05-02T23:16:45.826Z,16.02
2018-05-02T23:19:13.213Z,15.99
2018-05-02T23:21:40.588Z,16.01
2018-05-02T23:24:08.064Z,16.02
2018-05-02T23:26:35.467Z,16.01
2018-05-02T23:29:02.966Z,16.03
2018-05-02T23:31:30.366Z,16.06
2018-05-02T23:33:57.759Z,15.96
2018-05-02T23:36:25.287Z,15.89
2018-05-02T23:38:52.797Z,15.90
2018-05-02T23:41:21.148Z,15.84
2018-05-02T23:43:48.485Z,15.88
2018-05-02T23:46:15.857Z,15.82
2018-05-02T23:48:43.223Z,15.91
2018-05-02T23:51:10.598Z,15.86
2018-05-02T23:53:38.060Z,15.81
2018-05-02T23:56:05.439Z,15.72
2018-05-02T23:58:32.808Z,15.53
